Time;durP1;ratioP1;P1;durP2;ratioP2;P2;SDS_P1;SDS_P2;PMS_P1;PMS_P2;Temp;Humidity;BMP_temperature;BMP_pressure;BME280_temperature;BME280_humidity;BME280_pressure;Samples;Min_cycle;Max_cycle;Signal;HPM_P1;HPM_P2
2022/08/26 00:00:11;;;;;;;;;;;27.00;65.20;;;;;;843969;23;1288;-89
2022/08/26 00:00:32;;;;;;;;;;;27.00;65.20;;;;;;844633;23;802;-89
2022/08/26 00:00:53;;;;;;;;;;;27.00;65.20;;;;;;844737;23;806;-90
2022/08/26 00:01:14;;;;;;;;;;;27.00;65.20;;;;;;845334;23;514;-86
2022/08/26 00:01:34;;;;;;;;;;;27.00;65.20;;;;;;848797;23;778;-88
2022/08/26 00:01:55;;;;;;;;;;;27.00;65.10;;;;;;849343;23;806;-91
2022/08/26 00:02:16;;;;;;;;;;;27.00;65.20;;;;;;853082;23;798;-88
2022/08/26 00:02:36;;;;;;;;;;;27.00;65.20;;;;;;853057;23;818;-85
2022/08/26 00:02:57;;;;;;;;;;;27.00;65.10;;;;;;852666;23;873;-89
2022/08/26 00:03:18;;;;;;;;;;;27.00;65.10;;;;;;852988;23;1933;-85
2022/08/26 00:03:39;;;;;;;;;;;27.00;65.10;;;;;;853078;23;786;-91
2022/08/26 00:04:00;;;;;;;;;;;27.10;65.20;;;;;;853088;23;707;-90
2022/08/26 00:04:24;;;;;;;;;;;27.00;65.10;;;;;;853142;23;770;-88
2022/08/26 00:04:44;;;;;;;;;;;27.00;65.10;;;;;;853173;23;845;-85
2022/08/26 00:05:05;;;;;;;;;;;27.00;65.10;;;;;;848533;23;1172;-90
2022/08/26 00:05:26;;;;;;;;;;;27.00;65.00;;;;;;848797;23;886;-86
2022/08/26 00:05:46;;;;;;;;;;;27.00;65.00;;;;;;844509;23;1370;-85
2022/08/26 00:06:07;;;;;;;;;;;27.00;65.00;;;;;;844485;23;1179;-89
2022/08/26 00:06:30;;;;;;;;;;;27.00;65.00;;;;;;840508;23;1225;-88
2022/08/26 00:06:50;;;;;;;;;;;27.00;65.00;;;;;;841563;23;798;-88
2022/08/26 00:07:11;;;;;;;;;;;27.00;65.10;;;;;;844606;23;1219;-90
2022/08/26 00:07:32;;;;;;;;;;;27.00;65.00;;;;;;841519;23;1119;-91
2022/08/26 00:07:52;;;;;;;;;;;27.10;65.00;;;;;;844739;23;790;-84
2022/08/26 00:08:14;;;;;;;;;;;27.00;64.90;;;;;;845447;23;799;-89
2022/08/26 00:08:34;;;;;;;;;;;27.00;65.00;;;;;;848843;23;774;-84
2022/08/26 00:08:55;;;;;;;;;;;27.00;64.90;;;;;;844654;23;1107;-87
2022/08/26 00:09:16;;;;;;;;;;;27.00;64.90;;;;;;845237;23;1071;-88
2022/08/26 00:09:36;;;;;;;;;;;27.00;64.80;;;;;;848753;23;822;-89
2022/08/26 00:09:57;;;;;;;;;;;27.00;64.90;;;;;;848550;23;1246;-91
2022/08/26 00:10:19;;;;;;;;;;;27.00;64.90;;;;;;848612;23;790;-88
2022/08/26 00:10:39;;;;;;;;;;;27.00;64.90;;;;;;849288;23;791;-86
2022/08/26 00:11:00;;;;;;;;;;;27.00;64.90;;;;;;852704;23;873;-88
2022/08/26 00:11:21;;;;;;;;;;;27.00;64.80;;;;;;848551;23;1224;-85
2022/08/26 00:11:41;;;;;;;;;;;27.00;64.90;;;;;;848748;23;961;-88
2022/08/26 00:12:02;;;;;;;;;;;27.00;64.90;;;;;;848775;23;778;-86
2022/08/26 00:12:23;;;;;;;;;;;27.00;64.90;;;;;;848494;23;1842;-87
2022/08/26 00:12:43;;;;;;;;;;;27.00;64.90;;;;;;848796;23;790;-88
2022/08/26 00:13:04;;;;;;;;;;;27.00;64.80;;;;;;849143;23;770;-89
2022/08/26 00:13:25;;;;;;;;;;;27.00;64.80;;;;;;852899;23;889;-85
2022/08/26 00:13:45;;;;;;;;;;;27.00;64.90;;;;;;852881;23;778;-90
2022/08/26 00:14:06;;;;;;;;;;;27.00;64.80;;;;;;852786;23;826;-88
2022/08/26 00:14:26;;;;;;;;;;;27.00;64.80;;;;;;848657;23;1215;-86
2022/08/26 00:14:47;;;;;;;;;;;27.00;64.80;;;;;;848894;23;917;-84
2022/08/26 00:15:10;;;;;;;;;;;27.00;64.80;;;;;;844489;23;823;-87
2022/08/26 00:15:30;;;;;;;;;;;27.00;64.80;;;;;;844713;23;888;-87
2022/08/26 00:15:51;;;;;;;;;;;27.10;64.90;;;;;;844696;23;866;-86
2022/08/26 00:16:12;;;;;;;;;;;27.00;64.80;;;;;;845509;23;910;-87
2022/08/26 00:16:33;;;;;;;;;;;27.00;64.90;;;;;;848780;23;866;-90
2022/08/26 00:16:53;;;;;;;;;;;27.00;64.80;;;;;;849720;23;1760;-84
2022/08/26 00:17:14;;;;;;;;;;;27.10;64.80;;;;;;852828;23;809;-87
2022/08/26 00:17:35;;;;;;;;;;;27.00;64.80;;;;;;852902;23;821;-85
2022/08/26 00:17:55;;;;;;;;;;;27.00;64.80;;;;;;852955;23;794;-86
2022/08/26 00:18:17;;;;;;;;;;;27.00;64.80;;;;;;852876;23;802;-87
2022/08/26 00:18:38;;;;;;;;;;;27.00;64.70;;;;;;852985;23;822;-85
2022/08/26 00:18:58;;;;;;;;;;;27.10;64.70;;;;;;848554;23;1131;-88
2022/08/26 00:19:20;;;;;;;;;;;27.00;64.70;;;;;;848655;23;834;-90
2022/08/26 00:19:40;;;;;;;;;;;27.00;64.70;;;;;;848768;23;775;-87
2022/08/26 00:20:01;;;;;;;;;;;27.10;64.70;;;;;;848623;23;983;-85
2022/08/26 00:20:24;;;;;;;;;;;27.10;64.80;;;;;;848086;23;1163;-84
2022/08/26 00:20:44;;;;;;;;;;;27.10;64.70;;;;;;845616;23;1328;-88
2022/08/26 00:21:06;;;;;;;;;;;27.10;64.70;;;;;;848612;23;1196;-89
2022/08/26 00:21:26;;;;;;;;;;;27.10;64.60;;;;;;848744;23;954;-85
2022/08/26 00:21:47;;;;;;;;;;;27.00;64.60;;;;;;848762;23;779;-84
2022/08/26 00:22:09;;;;;;;;;;;27.00;64.60;;;;;;848699;23;854;-84
2022/08/26 00:22:30;;;;;;;;;;;27.10;64.60;;;;;;849451;23;1317;-85
2022/08/26 00:22:50;;;;;;;;;;;27.00;64.60;;;;;;852958;23;826;-90
2022/08/26 00:23:11;;;;;;;;;;;27.00;64.60;;;;;;853076;23;774;-87
2022/08/26 00:23:31;;;;;;;;;;;27.10;64.60;;;;;;852897;23;1900;-86
2022/08/26 00:23:52;;;;;;;;;;;27.00;64.60;;;;;;853142;23;731;-88
2022/08/26 00:24:13;;;;;;;;;;;27.00;64.60;;;;;;848543;23;1420;-87
2022/08/26 00:24:33;;;;;;;;;;;27.00;64.60;;;;;;848722;23;830;-88
2022/08/26 00:24:54;;;;;;;;;;;27.00;64.60;;;;;;848708;23;830;-87
2022/08/26 00:25:15;;;;;;;;;;;27.10;64.70;;;;;;848051;23;1299;-86
2022/08/26 00:25:36;;;;;;;;;;;27.00;64.60;;;;;;848645;23;825;-90
2022/08/26 00:25:57;;;;;;;;;;;27.10;64.60;;;;;;848770;23;774;-87
2022/08/26 00:26:18;;;;;;;;;;;27.10;64.60;;;;;;848719;23;790;-86
2022/08/26 00:26:38;;;;;;;;;;;27.00;64.60;;;;;;848292;23;1117;-86
2022/08/26 00:26:59;;;;;;;;;;;27.10;64.70;;;;;;849593;23;806;-86
2022/08/26 00:27:20;;;;;;;;;;;27.00;64.60;;;;;;848161;23;1073;-87
2022/08/26 00:27:42;;;;;;;;;;;27.10;64.80;;;;;;848753;23;751;-86
2022/08/26 00:28:03;;;;;;;;;;;27.10;64.80;;;;;;848798;23;811;-86
2022/08/26 00:28:24;;;;;;;;;;;27.00;64.70;;;;;;848840;23;893;-92
2022/08/26 00:28:44;;;;;;;;;;;27.00;64.70;;;;;;848845;23;759;-89
2022/08/26 00:29:05;;;;;;;;;;;27.00;64.80;;;;;;849621;23;758;-90
2022/08/26 00:29:26;;;;;;;;;;;27.00;64.80;;;;;;853174;23;754;-90
2022/08/26 00:29:46;;;;;;;;;;;27.00;64.80;;;;;;853093;23;735;-85
2022/08/26 00:30:08;;;;;;;;;;;27.00;64.80;;;;;;852943;23;1313;-93
2022/08/26 00:30:29;;;;;;;;;;;27.00;64.70;;;;;;852945;23;1223;-87
2022/08/26 00:30:49;;;;;;;;;;;27.00;64.80;;;;;;853198;23;905;-86
2022/08/26 00:31:10;;;;;;;;;;;27.00;64.80;;;;;;848738;23;1439;-89
2022/08/26 00:31:31;;;;;;;;;;;27.00;64.70;;;;;;848737;23;496;-85
2022/08/26 00:31:52;;;;;;;;;;;27.00;64.70;;;;;;848943;23;794;-85
2022/08/26 00:32:12;;;;;;;;;;;27.00;64.80;;;;;;849018;23;782;-85
2022/08/26 00:32:33;;;;;;;;;;;27.00;64.70;;;;;;848895;23;797;-85
2022/08/26 00:32:54;;;;;;;;;;;27.00;64.70;;;;;;849605;23;778;-89
2022/08/26 00:33:16;;;;;;;;;;;27.00;64.70;;;;;;853288;23;794;-87
2022/08/26 00:33:37;;;;;;;;;;;27.00;64.70;;;;;;853189;23;782;-89
2022/08/26 00:33:58;;;;;;;;;;;27.00;64.70;;;;;;853126;23;988;-87
2022/08/26 00:34:18;;;;;;;;;;;27.00;64.50;;;;;;853002;23;809;-88
2022/08/26 00:34:39;;;;;;;;;;;27.00;64.60;;;;;;853218;23;845;-84
2022/08/26 00:35:00;;;;;;;;;;;27.00;64.60;;;;;;853092;23;809;-85
2022/08/26 00:35:20;;;;;;;;;;;27.10;64.60;;;;;;848593;23;1252;-84
2022/08/26 00:35:41;;;;;;;;;;;27.00;64.50;;;;;;843832;23;1498;-90
2022/08/26 00:36:02;;;;;;;;;;;27.00;64.40;;;;;;844809;23;782;-86
2022/08/26 00:36:24;;;;;;;;;;;27.00;64.50;;;;;;844736;23;834;-87
2022/08/26 00:36:44;;;;;;;;;;;27.00;64.50;;;;;;844700;23;874;-91
2022/08/26 00:37:05;;;;;;;;;;;27.00;64.60;;;;;;844594;23;1403;-89
2022/08/26 00:37:25;;;;;;;;;;;27.00;64.60;;;;;;845336;23;818;-87
2022/08/26 00:37:46;;;;;;;;;;;27.00;64.60;;;;;;848732;23;1137;-86
2022/08/26 00:38:07;;;;;;;;;;;27.00;64.60;;;;;;848627;23;949;-84
2022/08/26 00:38:28;;;;;;;;;;;27.00;64.60;;;;;;848826;23;825;-93
2022/08/26 00:38:48;;;;;;;;;;;27.00;64.40;;;;;;849378;23;762;-85
2022/08/26 00:39:09;;;;;;;;;;;27.00;64.50;;;;;;848669;23;1270;-91
2022/08/26 00:39:29;;;;;;;;;;;27.00;64.50;;;;;;848780;23;750;-88
2022/08/26 00:39:51;;;;;;;;;;;27.00;64.50;;;;;;848765;23;794;-88
2022/08/26 00:40:14;;;;;;;;;;;27.00;64.70;;;;;;848768;23;837;-90
2022/08/26 00:40:37;;;;;;;;;;;27.00;64.60;;;;;;848703;23;1329;-88
2022/08/26 00:40:58;;;;;;;;;;;27.00;64.60;;;;;;848707;23;1345;-85
2022/08/26 00:41:20;;;;;;;;;;;27.00;64.60;;;;;;848713;23;1101;-90
2022/08/26 00:41:40;;;;;;;;;;;27.00;64.60;;;;;;848726;23;774;-85
2022/08/26 00:42:01;;;;;;;;;;;26.90;64.60;;;;;;848932;23;786;-92
2022/08/26 00:42:21;;;;;;;;;;;27.00;64.80;;;;;;848859;23;742;-89
2022/08/26 00:42:43;;;;;;;;;;;27.00;64.80;;;;;;848801;23;880;-88
2022/08/26 00:43:04;;;;;;;;;;;27.00;64.90;;;;;;849671;23;719;-86
2022/08/26 00:43:25;;;;;;;;;;;27.00;64.70;;;;;;852980;23;1939;-90
2022/08/26 00:43:46;;;;;;;;;;;27.00;64.70;;;;;;853005;23;778;-87
2022/08/26 00:44:09;;;;;;;;;;;27.00;64.60;;;;;;852977;23;822;-89
2022/08/26 00:44:30;;;;;;;;;;;27.00;64.60;;;;;;852960;23;817;-90
2022/08/26 00:44:51;;;;;;;;;;;27.00;64.50;;;;;;848452;23;1152;-88
2022/08/26 00:45:12;;;;;;;;;;;27.00;64.60;;;;;;848768;23;798;-90
2022/08/26 00:45:37;;;;;;;;;;;27.00;64.60;;;;;;848754;23;778;-88
2022/08/26 00:45:57;;;;;;;;;;;27.00;64.60;;;;;;844438;23;1161;-92
2022/08/26 00:46:20;;;;;;;;;;;27.00;64.60;;;;;;844656;23;805;-83
2022/08/26 00:46:43;;;;;;;;;;;27.00;64.50;;;;;;846566;23;755;-88
2022/08/26 00:47:06;;;;;;;;;;;27.00;64.60;;;;;;848947;23;830;-87
2022/08/26 00:47:29;;;;;;;;;;;26.90;64.50;;;;;;848829;23;829;-92
2022/08/26 00:47:56;;;;;;;;;;;27.00;64.70;;;;;;851055;23;848;-92
2022/08/26 00:48:18;;;;;;;;;;;26.90;64.60;;;;;;852870;23;853;-90
2022/08/26 00:48:41;;;;;;;;;;;27.00;64.60;;;;;;852857;23;802;-87
2022/08/26 00:49:08;;;;;;;;;;;27.00;64.50;;;;;;848705;23;1329;-88
2022/08/26 00:49:37;;;;;;;;;;;27.00;64.50;;;;;;848831;23;829;-89
2022/08/26 00:49:58;;;;;;;;;;;27.00;64.40;;;;;;848549;23;1456;-94
2022/08/26 00:50:21;;;;;;;;;;;27.00;64.60;;;;;;848717;23;1167;-95
2022/08/26 00:50:49;;;;;;;;;;;27.00;64.60;;;;;;848795;23;778;-89
2022/08/26 00:51:14;;;;;;;;;;;27.00;64.70;;;;;;852904;23;1426;-91
2022/08/26 00:51:38;;;;;;;;;;;27.00;64.70;;;;;;852963;23;889;-89
2022/08/26 00:52:01;;;;;;;;;;;27.00;64.70;;;;;;852917;23;877;-94
2022/08/26 00:52:23;;;;;;;;;;;26.90;64.60;;;;;;853142;23;809;-86
2022/08/26 00:52:44;;;;;;;;;;;27.00;64.60;;;;;;853087;23;865;-87
2022/08/26 00:53:20;;;;;;;;;;;27.00;64.60;;;;;;853056;23;810;-91
2022/08/26 00:53:44;;;;;;;;;;;26.90;64.60;;;;;;853049;23;877;-93
2022/08/26 00:54:07;;;;;;;;;;;27.00;64.60;;;;;;853237;23;806;-89
2022/08/26 00:54:31;;;;;;;;;;;26.90;64.60;;;;;;848815;23;1611;-85
2022/08/26 00:54:55;;;;;;;;;;;26.90;64.60;;;;;;848982;23;865;-90
2022/08/26 00:55:20;;;;;;;;;;;26.90;64.60;;;;;;849016;23;775;-92
2022/08/26 00:55:41;;;;;;;;;;;26.90;64.60;;;;;;848967;23;801;-90
2022/08/26 00:56:04;;;;;;;;;;;26.90;64.70;;;;;;848893;23;793;-88
2022/08/26 00:56:43;;;;;;;;;;;26.90;64.60;;;;;;852510;23;1079;-95
2022/08/26 00:57:07;;;;;;;;;;;26.90;64.80;;;;;;848716;23;1223;-87
2022/08/26 00:57:27;;;;;;;;;;;26.90;64.80;;;;;;848955;23;869;-84
2022/08/26 00:57:49;;;;;;;;;;;26.90;64.70;;;;;;848848;23;778;-86
2022/08/26 00:58:09;;;;;;;;;;;26.90;64.30;;;;;;848829;23;750;-87
2022/08/26 00:58:32;;;;;;;;;;;26.90;64.50;;;;;;848780;23;1099;-86
2022/08/26 00:58:55;;;;;;;;;;;26.90;64.80;;;;;;850458;23;853;-86
2022/08/26 00:59:16;;;;;;;;;;;26.90;65.00;;;;;;852960;23;807;-82
2022/08/26 00:59:37;;;;;;;;;;;26.90;64.60;;;;;;848662;23;1436;-88
2022/08/26 00:59:59;;;;;;;;;;;26.90;64.50;;;;;;848879;23;758;-87
2022/08/26 01:00:22;;;;;;;;;;;26.90;64.70;;;;;;844069;23;1446;-87
2022/08/26 01:00:43;;;;;;;;;;;26.90;64.90;;;;;;844743;23;834;-85
2022/08/26 01:01:04;;;;;;;;;;;26.90;64.60;;;;;;844783;23;862;-83
2022/08/26 01:01:26;;;;;;;;;;;26.90;64.70;;;;;;846344;23;819;-88
2022/08/26 01:01:47;;;;;;;;;;;26.90;64.80;;;;;;848954;23;845;-86
2022/08/26 01:02:08;;;;;;;;;;;26.90;64.90;;;;;;850214;23;787;-84
2022/08/26 01:02:28;;;;;;;;;;;26.90;64.90;;;;;;853306;23;909;-83
2022/08/26 01:02:49;;;;;;;;;;;26.90;64.80;;;;;;853138;23;774;-85
2022/08/26 01:03:10;;;;;;;;;;;26.90;64.60;;;;;;853088;23;789;-85
2022/08/26 01:03:32;;;;;;;;;;;26.90;64.50;;;;;;853066;23;1928;-87
2022/08/26 01:03:54;;;;;;;;;;;26.90;64.60;;;;;;853234;23;1015;-89
2022/08/26 01:04:17;;;;;;;;;;;26.90;64.60;;;;;;853043;23;794;-84
2022/08/26 01:04:38;;;;;;;;;;;26.90;64.60;;;;;;848738;23;1347;-90
2022/08/26 01:05:00;;;;;;;;;;;26.90;64.60;;;;;;848777;23;802;-89
2022/08/26 01:05:21;;;;;;;;;;;26.90;65.00;;;;;;848808;23;814;-90
2022/08/26 01:05:42;;;;;;;;;;;26.90;65.00;;;;;;848871;23;782;-85
2022/08/26 01:06:04;;;;;;;;;;;29.10;66.40;;;;;;848752;23;805;-83
2022/08/26 01:06:25;;;;;;;;;;;26.90;64.60;;;;;;849967;23;778;-84
2022/08/26 01:06:47;;;;;;;;;;;26.90;64.70;;;;;;853157;23;810;-82
2022/08/26 01:07:08;;;;;;;;;;;26.90;65.10;;;;;;848590;23;1684;-85
2022/08/26 01:07:30;;;;;;;;;;;26.90;65.00;;;;;;848927;23;821;-83
2022/08/26 01:07:51;;;;;;;;;;;26.90;65.00;;;;;;848507;23;839;-88
2022/08/26 01:08:11;;;;;;;;;;;26.90;65.10;;;;;;848659;23;842;-87
2022/08/26 01:08:32;;;;;;;;;;;26.90;65.10;;;;;;844483;23;1392;-84
2022/08/26 01:08:53;;;;;;;;;;;26.90;65.40;;;;;;845264;23;1595;-87
2022/08/26 01:09:15;;;;;;;;;;;26.90;65.20;;;;;;849186;23;790;-84
2022/08/26 01:09:37;;;;;;;;;;;26.90;64.80;;;;;;844456;23;1217;-84
2022/08/26 01:09:58;;;;;;;;;;;26.90;64.60;;;;;;840177;23;1269;-84
2022/08/26 01:10:24;;;;;;;;;;;26.90;64.90;;;;;;836308;23;1280;-85
2022/08/26 01:10:45;;;;;;;;;;;26.90;65.00;;;;;;834804;23;1233;-87
2022/08/26 01:11:05;;;;;;;;;;;26.90;65.20;;;;;;836579;23;787;-86
2022/08/26 01:11:26;;;;;;;;;;;26.90;65.00;;;;;;838586;23;771;-87
2022/08/26 01:11:48;;;;;;;;;;;26.90;65.00;;;;;;840550;23;743;-84
2022/08/26 01:12:08;;;;;;;;;;;26.90;64.90;;;;;;842280;23;902;-86
2022/08/26 01:12:31;;;;;;;;;;;26.90;64.90;;;;;;845438;23;822;-89
2022/08/26 01:12:55;;;;;;;;;;;26.90;64.80;;;;;;844109;23;1561;-87
2022/08/26 01:13:16;;;;;;;;;;;26.90;64.90;;;;;;844680;23;826;-87
2022/08/26 01:13:37;;;;;;;;;;;26.90;65.00;;;;;;840479;23;1181;-86
2022/08/26 01:13:59;;;;;;;;;;;26.90;65.00;;;;;;840383;23;1242;-86
2022/08/26 01:14:20;;;;;;;;;;;26.90;65.00;;;;;;840392;23;1138;-84
2022/08/26 01:14:41;;;;;;;;;;;26.90;65.00;;;;;;842364;23;827;-85
2022/08/26 01:15:04;;;;;;;;;;;26.90;65.00;;;;;;844436;23;818;-90
2022/08/26 01:15:29;;;;;;;;;;;26.90;65.00;;;;;;843943;23;1181;-85
2022/08/26 01:15:52;;;;;;;;;;;26.90;64.90;;;;;;844500;23;1385;-83
2022/08/26 01:16:14;;;;;;;;;;;26.90;64.80;;;;;;837625;23;1466;-84
2022/08/26 01:16:35;;;;;;;;;;;26.90;64.80;;;;;;840420;23;1154;-85
2022/08/26 01:16:55;;;;;;;;;;;26.90;64.80;;;;;;840558;23;771;-87
2022/08/26 01:17:17;;;;;;;;;;;26.90;64.90;;;;;;838363;23;1617;-85
2022/08/26 01:17:38;;;;;;;;;;;26.90;64.80;;;;;;840448;23;849;-86
2022/08/26 01:17:59;;;;;;;;;;;26.90;64.90;;;;;;841462;23;858;-84
2022/08/26 01:18:19;;;;;;;;;;;26.90;64.90;;;;;;844274;23;1168;-83
2022/08/26 01:18:42;;;;;;;;;;;26.90;64.80;;;;;;844555;23;901;-90
2022/08/26 01:19:12;;;;;;;;;;;26.90;64.90;;;;;;844634;23;681;-84
2022/08/26 01:20:02;;;;;;;;;;;26.90;64.80;;;;;;843839;23;1230;-86
2022/08/26 01:20:41;;;;;;;;;;;28.60;66.00;;;;;;840280;23;898;-84
2022/08/26 01:21:01;;;;;;;;;;;26.90;64.80;;;;;;840390;23;818;-88
2022/08/26 01:21:26;;;;;;;;;;;26.90;64.70;;;;;;840448;23;853;-84
2022/08/26 01:21:48;;;;;;;;;;;26.90;64.80;;;;;;840377;23;870;-85
2022/08/26 01:22:21;;;;;;;;;;;26.90;64.80;;;;;;836206;23;1237;-84
2022/08/26 01:22:49;;;;;;;;;;;26.90;64.60;;;;;;836501;23;823;-89
2022/08/26 01:23:10;;;;;;;;;;;27.70;65.20;;;;;;836457;23;491;-88
2022/08/26 01:23:35;;;;;;;;;;;26.90;64.80;;;;;;836329;23;1905;-85
2022/08/26 01:23:56;;;;;;;;;;;26.90;64.80;;;;;;837755;23;835;-84
2022/08/26 01:24:17;;;;;;;;;;;26.90;64.80;;;;;;836276;23;1119;-85
2022/08/26 01:24:38;;;;;;;;;;;26.90;64.80;;;;;;836537;23;1016;-84
2022/08/26 01:24:59;;;;;;;;;;;26.90;64.80;;;;;;836363;23;894;-85
2022/08/26 01:25:21;;;;;;;;;;;26.90;64.80;;;;;;836428;23;850;-85
2022/08/26 01:25:47;;;;;;;;;;;26.90;64.80;;;;;;836348;23;1002;-87
2022/08/26 01:26:13;;;;;;;;;;;26.90;64.90;;;;;;838183;23;886;-88
2022/08/26 01:26:35;;;;;;;;;;;26.90;64.80;;;;;;840454;23;803;-87
2022/08/26 01:27:01;;;;;;;;;;;26.90;64.80;;;;;;840396;23;787;-86
2022/08/26 01:27:23;;;;;;;;;;;26.90;64.90;;;;;;840389;23;838;-84
2022/08/26 01:27:43;;;;;;;;;;;26.90;64.90;;;;;;840445;23;830;-85
2022/08/26 01:28:07;;;;;;;;;;;26.90;65.00;;;;;;840525;23;811;-84
2022/08/26 01:28:29;;;;;;;;;;;26.90;64.80;;;;;;840202;23;1210;-85
2022/08/26 01:28:52;;;;;;;;;;;26.90;64.80;;;;;;840452;23;878;-85
2022/08/26 01:29:18;;;;;;;;;;;26.90;65.10;;;;;;836323;23;1087;-89
2022/08/26 01:29:41;;;;;;;;;;;26.90;64.90;;;;;;836425;23;814;-83
2022/08/26 01:30:03;;;;;;;;;;;26.90;64.90;;;;;;836481;23;854;-88
2022/08/26 01:30:25;;;;;;;;;;;26.90;64.80;;;;;;836278;23;1260;-84
2022/08/26 01:30:47;;;;;;;;;;;26.90;64.90;;;;;;836576;23;776;-89
2022/08/26 01:31:10;;;;;;;;;;;26.90;64.70;;;;;;839192;23;846;-91
2022/08/26 01:31:34;;;;;;;;;;;26.90;64.70;;;;;;840440;23;838;-87
2022/08/26 01:31:55;;;;;;;;;;;26.90;64.70;;;;;;840698;23;1063;-86
2022/08/26 01:32:18;;;;;;;;;;;26.90;64.70;;;;;;840893;23;771;-84
2022/08/26 01:32:39;;;;;;;;;;;26.90;64.80;;;;;;840890;23;827;-84
2022/08/26 01:33:02;;;;;;;;;;;26.90;64.70;;;;;;840797;23;1025;-84
2022/08/26 01:33:25;;;;;;;;;;;26.90;64.70;;;;;;836762;23;1104;-84
2022/08/26 01:33:51;;;;;;;;;;;26.90;64.70;;;;;;836890;23;893;-87
2022/08/26 01:34:18;;;;;;;;;;;26.90;65.60;;;;;;837443;23;806;-84
2022/08/26 01:34:39;;;;;;;;;;;26.90;64.70;;;;;;836771;23;1393;-86
2022/08/26 01:35:00;;;;;;;;;;;26.90;64.70;;;;;;832781;23;1147;-84
2022/08/26 01:35:20;;;;;;;;;;;26.90;64.60;;;;;;836100;23;775;-84
2022/08/26 01:35:41;;;;;;;;;;;26.90;64.60;;;;;;836618;23;790;-87
2022/08/26 01:36:02;;;;;;;;;;;26.90;64.80;;;;;;836663;23;1176;-83
2022/08/26 01:36:23;;;;;;;;;;;26.90;64.50;;;;;;836654;23;1054;-85
2022/08/26 01:36:44;;;;;;;;;;;26.90;64.60;;;;;;837409;23;763;-84
2022/08/26 01:37:04;;;;;;;;;;;26.90;64.60;;;;;;840913;23;973;-84
2022/08/26 01:37:26;;;;;;;;;;;26.90;64.60;;;;;;841631;23;779;-86
2022/08/26 01:37:48;;;;;;;;;;;26.90;64.60;;;;;;840273;23;910;-85
2022/08/26 01:38:09;;;;;;;;;;;26.90;64.60;;;;;;838207;23;748;-86
2022/08/26 01:38:30;;;;;;;;;;;26.90;64.50;;;;;;841217;23;971;-84
2022/08/26 01:38:51;;;;;;;;;;;26.90;64.60;;;;;;841079;23;1184;-84
2022/08/26 01:39:12;;;;;;;;;;;26.90;64.70;;;;;;836952;23;1211;-83
2022/08/26 01:39:34;;;;;;;;;;;26.90;64.40;;;;;;837164;23;866;-86
2022/08/26 01:39:55;;;;;;;;;;;26.90;64.50;;;;;;837081;23;1076;-84
2022/08/26 01:40:19;;;;;;;;;;;26.90;64.50;;;;;;836988;23;874;-84
2022/08/26 01:40:42;;;;;;;;;;;27.00;64.50;;;;;;837173;23;886;-84
2022/08/26 01:41:03;;;;;;;;;;;26.90;64.50;;;;;;839935;23;1321;-85
2022/08/26 01:41:24;;;;;;;;;;;26.90;64.50;;;;;;838810;23;858;-84
2022/08/26 01:41:46;;;;;;;;;;;26.90;64.40;;;;;;837071;23;767;-84
2022/08/26 01:42:08;;;;;;;;;;;26.90;64.40;;;;;;838211;23;772;-82
2022/08/26 01:42:29;;;;;;;;;;;27.00;64.50;;;;;;837140;23;1402;-84
2022/08/26 01:42:50;;;;;;;;;;;26.90;64.40;;;;;;837809;23;1433;-85
2022/08/26 01:43:15;;;;;;;;;;;26.90;64.50;;;;;;839675;23;949;-83
2022/08/26 01:43:37;;;;;;;;;;;26.90;64.30;;;;;;842381;23;796;-84
2022/08/26 01:43:58;;;;;;;;;;;26.90;64.30;;;;;;841487;23;795;-83
2022/08/26 01:44:20;;;;;;;;;;;26.90;64.30;;;;;;841552;23;925;-83
2022/08/26 01:44:56;;;;;;;;;;;26.90;64.30;;;;;;841760;23;815;-83
2022/08/26 01:45:18;;;;;;;;;;;26.90;65.20;;;;;;841488;23;1017;-83
2022/08/26 01:45:39;;;;;;;;;;;27.00;64.40;;;;;;836916;23;1207;-84
2022/08/26 01:46:01;;;;;;;;;;;26.90;65.30;;;;;;837009;23;854;-87
2022/08/26 01:46:22;;;;;;;;;;;26.90;64.40;;;;;;836576;23;843;-84
2022/08/26 01:46:44;;;;;;;;;;;26.90;64.30;;;;;;836602;23;1417;-84
2022/08/26 01:47:05;;;;;;;;;;;26.90;64.30;;;;;;832662;23;1171;-86
2022/08/26 01:47:28;;;;;;;;;;;26.90;64.20;;;;;;833654;23;843;-84
2022/08/26 01:47:49;;;;;;;;;;;26.90;65.20;;;;;;836313;23;1541;-84
2022/08/26 01:48:13;;;;;;;;;;;26.90;64.30;;;;;;836604;23;827;-85
2022/08/26 01:48:34;;;;;;;;;;;26.90;64.30;;;;;;832476;23;814;-90
2022/08/26 01:48:57;;;;;;;;;;;27.00;64.40;;;;;;834254;23;807;-88
2022/08/26 01:49:18;;;;;;;;;;;27.00;64.30;;;;;;836562;23;866;-85
2022/08/26 01:49:40;;;;;;;;;;;26.90;64.20;;;;;;835736;23;1279;-84
2022/08/26 01:50:03;;;;;;;;;;;27.00;64.20;;;;;;836375;23;982;-85
2022/08/26 01:50:25;;;;;;;;;;;27.00;64.20;;;;;;836325;23;1175;-84
2022/08/26 01:50:46;;;;;;;;;;;27.00;64.10;;;;;;836443;23;949;-87
2022/08/26 01:51:08;;;;;;;;;;;27.00;64.20;;;;;;836148;23;1344;-85
2022/08/26 01:51:30;;;;;;;;;;;27.00;64.40;;;;;;836391;23;1034;-83
2022/08/26 01:51:52;;;;;;;;;;;27.00;64.20;;;;;;836290;23;771;-84
2022/08/26 01:52:15;;;;;;;;;;;27.00;64.20;;;;;;836408;23;780;-85
2022/08/26 01:52:38;;;;;;;;;;;27.00;64.20;;;;;;836428;23;823;-85
2022/08/26 01:53:01;;;;;;;;;;;27.00;64.20;;;;;;838378;23;811;-84
2022/08/26 01:53:22;;;;;;;;;;;27.00;64.20;;;;;;840422;23;791;-84
2022/08/26 01:53:43;;;;;;;;;;;27.00;64.10;;;;;;840200;23;1260;-84
2022/08/26 01:54:06;;;;;;;;;;;27.00;64.10;;;;;;840389;23;779;-84
2022/08/26 01:54:26;;;;;;;;;;;27.00;64.10;;;;;;840396;23;890;-84
2022/08/26 01:54:47;;;;;;;;;;;27.00;64.20;;;;;;840385;23;771;-84
2022/08/26 01:55:08;;;;;;;;;;;26.90;64.10;;;;;;840501;23;886;-84
2022/08/26 01:55:28;;;;;;;;;;;27.00;64.10;;;;;;840345;23;806;-87
2022/08/26 01:55:51;;;;;;;;;;;27.00;64.10;;;;;;840213;23;799;-85
2022/08/26 01:56:12;;;;;;;;;;;27.00;64.20;;;;;;840435;23;847;-87
2022/08/26 01:56:34;;;;;;;;;;;27.00;64.00;;;;;;840373;23;870;-87
2022/08/26 01:56:54;;;;;;;;;;;27.00;64.00;;;;;;840325;23;826;-91
2022/08/26 01:57:16;;;;;;;;;;;26.90;64.00;;;;;;835866;23;859;-84
2022/08/26 01:57:36;;;;;;;;;;;27.00;64.00;;;;;;836491;23;784;-88
2022/08/26 01:57:58;;;;;;;;;;;27.00;64.00;;;;;;843304;23;1353;-85
2022/08/26 01:58:31;;;;;;;;;;;27.00;64.10;;;;;;844471;23;811;-86
2022/08/26 01:58:57;;;;;;;;;;;27.00;64.10;;;;;;844545;23;818;-83
2022/08/26 01:59:19;;;;;;;;;;;27.00;64.90;;;;;;848523;23;943;-86
2022/08/26 01:59:39;;;;;;;;;;;27.00;64.10;;;;;;844396;23;1151;-84
2022/08/26 02:00:01;;;;;;;;;;;27.00;64.10;;;;;;844456;23;1109;-89
2022/08/26 02:00:22;;;;;;;;;;;27.00;64.00;;;;;;840626;23;1247;-86
2022/08/26 02:00:44;;;;;;;;;;;27.00;64.00;;;;;;840654;23;842;-88
2022/08/26 02:01:04;;;;;;;;;;;26.90;64.00;;;;;;836377;23;1273;-84
2022/08/26 02:01:27;;;;;;;;;;;27.00;64.00;;;;;;836665;23;831;-84
2022/08/26 02:01:47;;;;;;;;;;;27.00;64.10;;;;;;837680;23;1329;-84
2022/08/26 02:02:08;;;;;;;;;;;27.00;64.10;;;;;;841647;23;815;-85
2022/08/26 02:02:28;;;;;;;;;;;27.00;64.00;;;;;;840531;23;1142;-83
2022/08/26 02:03:15;;;;;;;;;;;27.00;64.00;;;;;;841315;23;870;-89
2022/08/26 02:03:31;;;;;;;;;;;27.00;64.00;;;;;;844261;23;1944;-89
2022/08/26 02:03:52;;;;;;;;;;;27.00;64.00;;;;;;844390;23;1197;-87
2022/08/26 02:04:25;;;;;;;;;;;26.90;63.90;;;;;;845095;23;885;-89
2022/08/26 02:04:47;;;;;;;;;;;27.00;64.00;;;;;;848623;23;799;-85
2022/08/26 02:05:10;;;;;;;;;;;27.00;64.80;;;;;;844399;23;1503;-84
2022/08/26 02:05:31;;;;;;;;;;;27.00;64.80;;;;;;844492;23;882;-84
2022/08/26 02:05:53;;;;;;;;;;;27.00;64.00;;;;;;844384;23;931;-85
2022/08/26 02:06:14;;;;;;;;;;;27.00;63.90;;;;;;844496;23;802;-88
2022/08/26 02:06:35;;;;;;;;;;;27.00;64.00;;;;;;843821;23;1180;-88
2022/08/26 02:06:56;;;;;;;;;;;27.00;64.00;;;;;;846042;23;814;-89
2022/08/26 02:07:18;;;;;;;;;;;27.00;64.00;;;;;;848513;23;1199;-85
2022/08/26 02:07:39;;;;;;;;;;;27.00;64.00;;;;;;848564;23;802;-87
2022/08/26 02:08:00;;;;;;;;;;;27.00;64.00;;;;;;848522;23;783;-91
2022/08/26 02:08:24;;;;;;;;;;;27.00;64.00;;;;;;848629;23;813;-84
2022/08/26 02:08:46;;;;;;;;;;;27.00;64.00;;;;;;848566;23;763;-84
2022/08/26 02:09:07;;;;;;;;;;;27.00;64.00;;;;;;844357;23;1359;-84
2022/08/26 02:09:28;;;;;;;;;;;27.00;64.00;;;;;;844321;23;1423;-84
2022/08/26 02:09:48;;;;;;;;;;;27.00;64.00;;;;;;840558;23;1250;-86
2022/08/26 02:10:10;;;;;;;;;;;27.00;64.00;;;;;;844514;23;870;-88
2022/08/26 02:10:30;;;;;;;;;;;26.90;63.90;;;;;;844495;23;866;-87
2022/08/26 02:10:52;;;;;;;;;;;27.00;64.00;;;;;;844425;23;1307;-89
2022/08/26 02:11:13;;;;;;;;;;;27.00;64.00;;;;;;840370;23;1240;-84
2022/08/26 02:11:34;;;;;;;;;;;27.00;64.00;;;;;;837215;23;1192;-87
2022/08/26 02:11:54;;;;;;;;;;;27.00;64.00;;;;;;840497;23;806;-84
2022/08/26 02:12:16;;;;;;;;;;;27.00;64.00;;;;;;840371;23;838;-84
2022/08/26 02:12:37;;;;;;;;;;;27.00;64.00;;;;;;841488;23;783;-85
2022/08/26 02:12:58;;;;;;;;;;;27.00;64.00;;;;;;845212;23;1268;-86
2022/08/26 02:13:19;;;;;;;;;;;27.00;64.00;;;;;;848642;23;763;-88
2022/08/26 02:13:43;;;;;;;;;;;27.00;63.90;;;;;;848210;23;1482;-87